Terminal Aerodrome Forecast
Issued by NWS Binghamton, NY

Home | Current Version | Previous Version | Text Only | Print | Product List | Glossary On
Versions: 1 2 3 4 5 6 7 8 9 10 11 12 13 14 15 16 17 18 19 20 21 22 23 24 25
933
FTUS41 KBGM 260910 AAA
TAFAVP
TAF AMD
KAVP 260910Z 2609/2706 VRB03KT P6SM FEW008 OVC015
      TEMPO 2609/2612 OVC008
     FM261300 VRB03KT P6SM BKN020
     FM261700 20005KT P6SM SCT035
     FM270400 18005KT P6SM BKN030=

USA.gov is the U.S. government's official web portal to all federal, state and local government web resources and services.